Amelia, Virginia
Current Conditions -  °F | °C
As of 10:55 PM on Tuesday 21 Oct 2014 (Local Time) from KW81 Reporting Station
Overcast Overcast  
Wind Chill: 56°   Ceiling: 11000
Heat Index: 56°   Visibility: 10mi
Dew Point: 47°   Wind: 0mph
Humidity: 72%   Direction: NA
Pressure: 29.92"   Gusts: NA
Location:  37.3498°N, 77.9661°W
Report Text: KW81 220255Z AUTO 00000KT 10SM OVC110 13/08 A2992 RMK AO1 T01320083
Loading
Personal Weather Stations






























Interactive Weather Map
Tropical Storm Tracking
New forecast layout! Learn more

10-Day Weather Forecast

Advertisements
Track Severe Weather on mobile